Time;durP1;ratioP1;P1;durP2;ratioP2;P2;SDS_P1;SDS_P2;PMS_P1;PMS_P2;Temp;Humidity;BMP_temperature;BMP_pressure;BME280_temperature;BME280_humidity;BME280_pressure;Samples;Min_cycle;Max_cycle;Signal;HPM_P1;HPM_P2
2022/03/25 00:01:43;;;;;;;84.78;55.75;;;;;;;;;;5018993;28;20435;-86
2022/03/25 00:04:09;;;;;;;82.82;55.15;;;;;;;;;;5035283;28;20400;-86
2022/03/25 00:06:36;;;;;;;90.38;57.55;;;;;;;;;;5035306;28;20488;-86
2022/03/25 00:09:02;;;;;;;86.57;55.95;;;;;;;;;;5018742;28;20085;-86
2022/03/25 00:11:28;;;;;;;82.30;52.75;;;;;;;;;;5018374;28;20041;-86
2022/03/25 00:13:54;;;;;;;76.45;51.50;;;;;;;;;;5018772;28;20396;-86
2022/03/25 00:16:21;;;;;;;79.78;50.90;;;;;;;;;;5035138;28;20063;-86
2022/03/25 00:18:54;;;;;;;89.05;56.20;;;;;;;;;;5018423;28;20050;-86
2022/03/25 00:21:20;;;;;;;84.72;53.05;;;;;;;;;;5018563;28;20598;-86
2022/03/25 00:23:47;;;;;;;93.18;58.78;;;;;;;;;;5034764;28;20103;-86
2022/03/25 00:26:13;;;;;;;91.93;58.38;;;;;;;;;;5018298;28;20596;-86
2022/03/25 00:28:39;;;;;;;83.68;55.47;;;;;;;;;;5034682;28;20046;-86
2022/03/25 00:31:09;;;;;;;77.35;52.33;;;;;;;;;;5018168;28;20033;-86
2022/03/25 00:33:36;;;;;;;82.55;52.17;;;;;;;;;;5018058;28;20044;-86
2022/03/25 00:36:03;;;;;;;88.30;56.28;;;;;;;;;;5034492;28;20045;-86
2022/03/25 00:38:29;;;;;;;90.25;55.00;;;;;;;;;;5034472;28;20037;-86
2022/03/25 00:40:55;;;;;;;83.10;51.60;;;;;;;;;;5017910;28;20077;-86
2022/03/25 00:43:22;;;;;;;75.32;50.65;;;;;;;;;;5034352;28;20103;-86
2022/03/25 00:45:48;;;;;;;78.13;50.67;;;;;;;;;;5034304;28;20076;-86
2022/03/25 00:48:14;;;;;;;68.35;46.97;;;;;;;;;;5018073;28;20442;-86
2022/03/25 00:50:41;;;;;;;81.43;52.92;;;;;;;;;;5017827;28;20044;-85
2022/03/25 00:53:08;;;;;;;82.75;53.85;;;;;;;;;;5017955;28;20493;-86
2022/03/25 00:55:34;;;;;;;80.88;54.65;;;;;;;;;;5017995;28;20401;-86
2022/03/25 00:58:01;;;;;;;75.25;51.13;;;;;;;;;;5018428;28;20101;-86
2022/03/25 01:00:27;;;;;;;74.55;49.20;;;;;;;;;;5017884;28;20417;-86
2022/03/25 01:02:54;;;;;;;66.10;44.58;;;;;;;;;;5033935;28;20053;-86
2022/03/25 01:05:20;;;;;;;71.55;45.70;;;;;;;;;;5017466;28;20037;-86
2022/03/25 01:07:47;;;;;;;68.03;46.88;;;;;;;;;;5017447;28;20048;-86
2022/03/25 01:10:13;;;;;;;71.68;48.65;;;;;;;;;;5033824;28;20042;-86
2022/03/25 01:12:39;;;;;;;70.25;47.70;;;;;;;;;;5017319;28;20041;-86
2022/03/25 01:15:06;;;;;;;74.00;48.90;;;;;;;;;;5017330;28;20044;-86
2022/03/25 01:17:32;;;;;;;72.65;48.15;;;;;;;;;;5017176;28;20038;-86
2022/03/25 01:20:09;;;;;;;69.45;48.20;;;;;;;;;;5017226;28;20041;-86
2022/03/25 01:22:35;;;;;;;74.82;49.47;;;;;;;;;;5033633;28;20041;-86
2022/03/25 01:25:01;;;;;;;72.43;49.55;;;;;;;;;;5033590;28;20124;-86
2022/03/25 01:27:27;;;;;;;68.85;46.88;;;;;;;;;;5016900;28;20107;-86
2022/03/25 01:29:54;;;;;;;70.05;47.58;;;;;;;;;;5017183;28;20505;-86
2022/03/25 01:32:27;;;;;;;78.60;52.17;;;;;;;;;;5033630;28;20033;-86
2022/03/25 01:34:54;;;;;;;77.25;50.50;;;;;;;;;;5033423;28;20045;-86
2022/03/25 01:37:20;;;;;;;91.68;54.75;;;;;;;;;;5017464;28;20077;-86
2022/03/25 01:39:46;;;;;;;88.15;55.10;;;;;;;;;;5016740;28;20076;-86
2022/03/25 01:42:12;;;;;;;89.85;58.88;;;;;;;;;;5016162;28;20087;-86
2022/03/25 01:44:38;;;;;;;83.53;56.92;;;;;;;;;;5033481;28;20445;-85
2022/03/25 01:47:08;;;;;;;75.55;51.83;;;;;;;;;;5016731;28;20045;-86
2022/03/25 01:49:34;;;;;;;71.38;48.88;;;;;;;;;;5016602;28;20102;-86
2022/03/25 01:52:02;;;;;;;72.03;49.03;;;;;;;;;;5016851;28;20037;-85
2022/03/25 01:54:34;;;;;;;70.68;47.90;;;;;;;;;;5032998;28;20052;-85
2022/03/25 01:57:00;;;;;;;73.80;46.60;;;;;;;;;;5016745;28;20064;-85
2022/03/25 01:59:26;;;;;;;69.75;44.97;;;;;;;;;;5016731;28;20053;-85
2022/03/25 02:01:54;;;;;;;69.82;46.42;;;;;;;;;;5016702;28;20049;-85
2022/03/25 02:04:22;;;;;;;71.38;47.95;;;;;;;;;;5033028;28;20564;-85
2022/03/25 02:06:48;;;;;;;63.58;43.78;;;;;;;;;;5016598;28;20033;-85
2022/03/25 02:09:14;;;;;;;58.75;41.47;;;;;;;;;;5033344;28;20133;-85
2022/03/25 02:11:41;;;;;;;60.60;43.75;;;;;;;;;;5016563;28;20088;-85
2022/03/25 02:14:07;;;;;;;61.40;42.92;;;;;;;;;;5016459;28;20038;-85
2022/03/25 02:16:34;;;;;;;60.20;42.55;;;;;;;;;;5016089;28;20040;-85
2022/03/25 02:19:01;;;;;;;60.47;41.40;;;;;;;;;;5032563;28;20125;-85
2022/03/25 02:21:33;;;;;;;54.25;38.38;;;;;;;;;;5016086;28;20128;-85
2022/03/25 02:24:00;;;;;;;63.05;42.88;;;;;;;;;;5016102;28;20048;-85
2022/03/25 02:26:30;;;;;;;55.60;40.45;;;;;;;;;;5015784;28;20057;-85
2022/03/25 02:28:56;;;;;;;58.75;40.85;;;;;;;;;;5016195;28;20041;-85
2022/03/25 02:31:22;;;;;;;55.17;40.25;;;;;;;;;;5032311;28;20046;-85
2022/03/25 02:33:49;;;;;;;57.28;39.72;;;;;;;;;;5016255;28;20512;-85
2022/03/25 02:36:15;;;;;;;56.10;40.33;;;;;;;;;;5015899;28;20040;-85
2022/03/25 02:38:41;;;;;;;58.67;41.33;;;;;;;;;;5032168;28;20037;-84
2022/03/25 02:41:07;;;;;;;58.47;39.45;;;;;;;;;;5032234;28;20049;-85
2022/03/25 02:43:34;;;;;;;59.15;41.50;;;;;;;;;;5032541;28;20045;-85
2022/03/25 02:46:00;;;;;;;60.40;41.55;;;;;;;;;;5015976;28;20072;-85
2022/03/25 02:48:26;;;;;;;61.30;42.50;;;;;;;;;;5032401;28;20473;-85
2022/03/25 02:50:52;;;;;;;62.22;43.22;;;;;;;;;;5015785;28;20076;-85
2022/03/25 02:53:18;;;;;;;58.50;40.00;;;;;;;;;;5032594;28;20064;-85
2022/03/25 02:55:45;;;;;;;52.45;38.95;;;;;;;;;;5032099;28;20044;-85
2022/03/25 02:58:12;;;;;;;57.83;39.50;;;;;;;;;;5032106;28;20038;-85
2022/03/25 03:00:38;;;;;;;49.95;35.67;;;;;;;;;;5031924;28;20046;-85
2022/03/25 03:03:04;;;;;;;51.17;36.28;;;;;;;;;;5015643;28;20068;-85
2022/03/25 03:05:33;;;;;;;50.83;36.58;;;;;;;;;;5015541;28;20056;-85
2022/03/25 03:07:59;;;;;;;51.20;36.25;;;;;;;;;;5015758;28;20048;-84
2022/03/25 03:10:25;;;;;;;46.22;34.53;;;;;;;;;;5015438;28;20129;-85
2022/03/25 03:12:52;;;;;;;46.40;34.83;;;;;;;;;;5031895;28;20045;-85
2022/03/25 03:15:19;;;;;;;46.22;33.35;;;;;;;;;;5015509;28;20045;-85
2022/03/25 03:17:45;;;;;;;59.88;39.80;;;;;;;;;;5015721;28;20516;-84
2022/03/25 03:20:12;;;;;;;174.75;55.67;;;;;;;;;;5015458;28;20041;-85
2022/03/25 03:22:39;;;;;;;67.97;43.40;;;;;;;;;;5031839;28;20053;-85
2022/03/25 03:25:05;;;;;;;76.53;47.75;;;;;;;;;;5032127;28;20041;-85
2022/03/25 03:27:32;;;;;;;62.92;41.05;;;;;;;;;;5031633;28;20062;-85
2022/03/25 03:29:58;;;;;;;70.32;43.97;;;;;;;;;;5031646;28;20045;-84
2022/03/25 03:32:25;;;;;;;55.60;37.90;;;;;;;;;;5015599;28;20033;-85
2022/03/25 03:34:53;;;;;;;64.03;42.58;;;;;;;;;;5031997;28;20524;-84
2022/03/25 03:37:20;;;;;;;62.75;40.80;;;;;;;;;;5015587;28;20072;-84
2022/03/25 03:39:47;;;;;;;67.32;43.30;;;;;;;;;;5015596;28;20045;-84
2022/03/25 03:42:13;;;;;;;66.97;44.53;;;;;;;;;;5015495;28;20063;-84
2022/03/25 03:44:40;;;;;;;68.25;42.95;;;;;;;;;;5031907;28;20501;-85
2022/03/25 03:47:07;;;;;;;62.53;41.95;;;;;;;;;;5015168;28;20088;-84
2022/03/25 03:49:33;;;;;;;65.65;43.30;;;;;;;;;;5015082;28;20124;-84
2022/03/25 03:51:59;;;;;;;141.48;47.33;;;;;;;;;;5031606;28;20045;-84
2022/03/25 03:54:26;;;;;;;71.70;45.65;;;;;;;;;;5015155;28;20037;-84
2022/03/25 03:56:52;;;;;;;78.88;46.33;;;;;;;;;;5015102;28;20042;-84
2022/03/25 03:59:18;;;;;;;181.73;56.10;;;;;;;;;;5015381;28;20037;-84
2022/03/25 04:01:50;;;;;;;264.00;63.03;;;;;;;;;;5031483;28;20072;-84
2022/03/25 04:04:17;;;;;;;228.88;63.78;;;;;;;;;;5016190;28;20140;-84
2022/03/25 04:06:44;;;;;;;85.88;51.08;;;;;;;;;;5035126;28;20052;-84
2022/03/25 04:09:11;;;;;;;106.75;55.15;;;;;;;;;;5018555;28;20067;-84
2022/03/25 04:11:37;;;;;;;88.72;52.83;;;;;;;;;;5034798;28;20049;-84
2022/03/25 04:14:03;;;;;;;87.32;51.42;;;;;;;;;;5034970;28;20041;-85
2022/03/25 04:16:30;;;;;;;82.00;50.92;;;;;;;;;;5034912;28;20038;-84
2022/03/25 04:18:57;;;;;;;94.43;51.80;;;;;;;;;;5034852;28;20072;-84
2022/03/25 04:21:23;;;;;;;135.30;58.60;;;;;;;;;;5018642;28;20043;-84
2022/03/25 04:23:49;;;;;;;104.20;51.78;;;;;;;;;;5034785;28;20041;-84
2022/03/25 04:26:16;;;;;;;82.50;49.00;;;;;;;;;;5034579;28;20057;-84
2022/03/25 04:28:42;;;;;;;151.93;57.25;;;;;;;;;;5018286;28;20049;-84
2022/03/25 04:31:09;;;;;;;96.53;53.20;;;;;;;;;;5034520;28;20038;-84
2022/03/25 04:33:37;;;;;;;135.73;55.10;;;;;;;;;;5018561;28;20437;-84
2022/03/25 04:36:03;;;;;;;113.55;55.30;;;;;;;;;;5034814;28;20501;-84
2022/03/25 04:38:30;;;;;;;91.78;51.67;;;;;;;;;;5034449;28;20046;-84
2022/03/25 04:40:56;;;;;;;153.00;58.42;;;;;;;;;;5018187;28;20038;-84
2022/03/25 04:43:23;;;;;;;194.85;62.97;;;;;;;;;;5018209;28;20477;-84
2022/03/25 04:45:49;;;;;;;255.02;70.25;;;;;;;;;;5034381;28;20049;-84
2022/03/25 04:48:15;;;;;;;131.98;55.50;;;;;;;;;;5034443;28;20041;-84
2022/03/25 04:50:43;;;;;;;88.43;53.33;;;;;;;;;;5034392;28;20138;-84
2022/03/25 04:53:10;;;;;;;104.15;50.65;;;;;;;;;;5034186;28;20041;-84
2022/03/25 04:55:36;;;;;;;86.65;50.85;;;;;;;;;;5017724;28;20037;-84
2022/03/25 04:58:02;;;;;;;91.72;49.17;;;;;;;;;;5017659;28;20171;-84
2022/03/25 05:00:28;;;;;;;75.72;46.85;;;;;;;;;;5017658;28;20041;-85
2022/03/25 05:02:55;;;;;;;69.20;43.90;;;;;;;;;;5034023;28;20056;-84
2022/03/25 05:05:21;;;;;;;70.43;45.53;;;;;;;;;;5033972;28;20044;-84
2022/03/25 05:07:50;;;;;;;65.75;44.13;;;;;;;;;;5034148;28;20547;-84
2022/03/25 05:10:16;;;;;;;64.03;41.70;;;;;;;;;;5034037;28;20186;-85
2022/03/25 05:12:43;;;;;;;64.13;41.33;;;;;;;;;;5034119;28;20523;-84
2022/03/25 05:15:09;;;;;;;63.13;41.75;;;;;;;;;;5033230;28;20041;-84
2022/03/25 05:17:43;;;;;;;59.33;41.13;;;;;;;;;;5033571;28;20103;-84
2022/03/25 05:20:09;;;;;;;61.17;39.87;;;;;;;;;;5017267;28;20037;-83
2022/03/25 05:22:35;;;;;;;61.45;40.60;;;;;;;;;;5033751;28;20477;-83
2022/03/25 05:25:06;;;;;;;56.13;37.58;;;;;;;;;;5033584;28;20048;-83
2022/03/25 05:27:32;;;;;;;55.58;38.00;;;;;;;;;;5016961;28;20057;-82
2022/03/25 05:29:59;;;;;;;59.38;38.03;;;;;;;;;;5017156;28;20042;-84
2022/03/25 05:32:25;;;;;;;55.03;38.70;;;;;;;;;;5033529;28;20099;-83
2022/03/25 05:34:51;;;;;;;56.22;36.53;;;;;;;;;;5033645;28;20045;-84
2022/03/25 05:37:17;;;;;;;55.13;36.80;;;;;;;;;;5033646;28;20560;-84
2022/03/25 05:39:45;;;;;;;51.47;35.20;;;;;;;;;;5033407;28;20091;-84
2022/03/25 05:42:14;;;;;;;49.63;35.42;;;;;;;;;;5016873;28;20041;-84
2022/03/25 05:44:40;;;;;;;52.92;36.13;;;;;;;;;;5033527;28;20041;-84
2022/03/25 05:47:06;;;;;;;54.85;36.95;;;;;;;;;;5016807;28;20045;-83
2022/03/25 05:49:34;;;;;;;54.75;36.45;;;;;;;;;;5033415;28;20136;-84
2022/03/25 05:52:00;;;;;;;52.50;36.45;;;;;;;;;;5033287;28;20456;-83
2022/03/25 05:54:26;;;;;;;54.00;36.63;;;;;;;;;;5016729;28;20060;-84
2022/03/25 05:56:52;;;;;;;47.20;33.60;;;;;;;;;;5033462;28;20463;-84
2022/03/25 05:59:19;;;;;;;54.55;34.85;;;;;;;;;;5016843;28;20037;-84
2022/03/25 06:01:45;;;;;;;52.70;35.17;;;;;;;;;;5032928;28;20041;-84
2022/03/25 06:04:11;;;;;;;50.40;33.65;;;;;;;;;;5033166;28;20501;-84
2022/03/25 06:06:37;;;;;;;51.80;36.40;;;;;;;;;;5033015;28;20451;-84
2022/03/25 06:09:03;;;;;;;55.80;37.17;;;;;;;;;;5032723;28;20044;-84
2022/03/25 06:11:29;;;;;;;50.97;35.92;;;;;;;;;;5016289;28;20508;-83
2022/03/25 06:13:56;;;;;;;53.25;36.05;;;;;;;;;;5016516;28;20538;-83
2022/03/25 06:16:22;;;;;;;50.75;35.97;;;;;;;;;;5032640;28;20033;-83
2022/03/25 06:18:49;;;;;;;49.42;34.45;;;;;;;;;;5032819;28;20033;-83
2022/03/25 06:21:16;;;;;;;49.33;33.92;;;;;;;;;;5016397;28;20405;-83
2022/03/25 06:23:42;;;;;;;50.35;34.42;;;;;;;;;;5032636;28;20465;-83
2022/03/25 06:26:08;;;;;;;49.65;34.60;;;;;;;;;;5032067;28;20093;-83
2022/03/25 06:28:35;;;;;;;51.15;35.38;;;;;;;;;;5032114;28;20497;-83
2022/03/25 06:31:01;;;;;;;47.33;34.03;;;;;;;;;;5032226;28;20041;-83
2022/03/25 06:33:27;;;;;;;51.30;34.90;;;;;;;;;;5032317;28;20084;-83
2022/03/25 06:35:53;;;;;;;48.80;33.47;;;;;;;;;;5032416;28;20044;-83
2022/03/25 06:38:20;;;;;;;47.17;32.10;;;;;;;;;;5032559;28;20033;-83
2022/03/25 06:41:05;;;;;;;44.47;31.55;;;;;;;;;;5049126;28;20627;-83
2022/03/25 06:43:31;;;;;;;48.83;32.90;;;;;;;;;;5033385;28;20497;-84
2022/03/25 06:45:58;;;;;;;47.97;33.63;;;;;;;;;;5048971;28;20045;-83
2022/03/25 06:48:24;;;;;;;55.33;36.95;;;;;;;;;;5032523;28;20095;-83
2022/03/25 06:50:51;;;;;;;55.22;36.33;;;;;;;;;;5049079;28;20037;-83
2022/03/25 06:53:17;;;;;;;52.22;36.72;;;;;;;;;;5032364;28;20034;-84
2022/03/25 06:55:44;;;;;;;50.78;35.22;;;;;;;;;;5048950;28;20041;-83
2022/03/25 06:58:10;;;;;;;55.25;37.10;;;;;;;;;;5031963;28;20042;-82
2022/03/25 07:00:37;;;;;;;59.13;39.58;;;;;;;;;;5032279;28;20103;-82
2022/03/25 07:03:04;;;;;;;62.50;39.45;;;;;;;;;;5032294;28;20424;-83
2022/03/25 07:05:31;;;;;;;60.17;38.88;;;;;;;;;;5032291;28;20136;-83
2022/03/25 07:07:58;;;;;;;60.05;38.40;;;;;;;;;;5048819;28;20068;-82
2022/03/25 07:10:26;;;;;;;58.05;38.90;;;;;;;;;;5032357;28;20042;-84
2022/03/25 07:12:53;;;;;;;62.42;39.80;;;;;;;;;;5049350;28;20094;-84
2022/03/25 07:15:22;;;;;;;57.35;38.92;;;;;;;;;;5049371;28;20128;-83
2022/03/25 07:17:49;;;;;;;60.03;38.63;;;;;;;;;;5032164;28;20052;-82
2022/03/25 07:20:16;;;;;;;57.28;37.35;;;;;;;;;;5032159;28;20131;-83
2022/03/25 07:22:46;;;;;;;58.83;38.83;;;;;;;;;;5048559;28;20101;-83
2022/03/25 07:25:13;;;;;;;64.70;41.00;;;;;;;;;;5048375;28;20037;-83
2022/03/25 07:27:40;;;;;;;64.45;41.78;;;;;;;;;;5031425;28;20058;-83
2022/03/25 07:30:06;;;;;;;67.93;42.55;;;;;;;;;;5031759;28;20128;-85
2022/03/25 07:32:33;;;;;;;79.65;46.70;;;;;;;;;;5032073;28;20037;-84
2022/03/25 07:34:59;;;;;;;81.30;49.33;;;;;;;;;;5031501;28;20072;-82
2022/03/25 07:37:25;;;;;;;91.65;51.72;;;;;;;;;;5046064;28;20052;-81
2022/03/25 07:39:51;;;;;;;98.15;53.15;;;;;;;;;;5032158;28;20041;-82
2022/03/25 07:42:18;;;;;;;106.60;56.10;;;;;;;;;;5050783;28;20050;-82
2022/03/25 07:44:44;;;;;;;118.75;59.67;;;;;;;;;;5050270;28;20041;-83
2022/03/25 07:47:12;;;;;;;117.05;55.88;;;;;;;;;;5029349;28;20045;-82
2022/03/25 07:49:39;;;;;;;133.10;62.05;;;;;;;;;;5013003;28;20608;-83
2022/03/25 07:52:07;;;;;;;125.97;61.75;;;;;;;;;;5030480;28;20033;-82
2022/03/25 07:54:34;;;;;;;120.90;60.83;;;;;;;;;;5015760;28;20068;-83
2022/03/25 07:57:06;;;;;;;105.45;56.83;;;;;;;;;;5015792;28;20044;-84
2022/03/25 07:59:36;;;;;;;110.40;57.25;;;;;;;;;;5031949;28;20116;-83
2022/03/25 08:02:03;;;;;;;107.97;56.92;;;;;;;;;;5022592;28;20033;-85
2022/03/25 08:04:35;;;;;;;99.88;52.33;;;;;;;;;;5023771;28;20069;-85
2022/03/25 08:07:11;;;;;;;86.50;49.97;;;;;;;;;;5039435;28;20128;-86
2022/03/25 08:09:59;;;;;;;69.25;40.33;;;;;;;;;;5003620;28;20084;-86
2022/03/25 08:12:44;;;;;;;63.83;39.97;;;;;;;;;;5017790;28;20184;-86
2022/03/25 08:15:20;;;;;;;59.40;37.67;;;;;;;;;;5013616;28;20045;-86
2022/03/25 08:18:13;;;;;;;58.10;36.63;;;;;;;;;;5015949;28;20053;-86
2022/03/25 08:21:11;;;;;;;56.70;36.05;;;;;;;;;;5030508;28;20052;-86
2022/03/25 08:33:59;;;;;;;54.40;34.75;;;;;;;;;;4991440;28;20161;-87
2022/03/25 08:37:05;;;;;;;52.20;33.60;;;;;;;;;;4960014;28;20153;-86
2022/03/25 08:39:51;;;;;;;47.00;31.95;;;;;;;;;;4991395;28;20121;-87
2022/03/25 08:42:18;;;;;;;50.17;32.00;;;;;;;;;;4959008;28;20530;-86
2022/03/25 08:44:50;;;;;;;51.53;30.80;;;;;;;;;;4974054;28;20042;-87
2022/03/25 08:47:18;;;;;;;45.28;29.00;;;;;;;;;;4974695;28;20050;-85
2022/03/25 08:49:45;;;;;;;38.70;26.35;;;;;;;;;;4959283;28;20042;-87
2022/03/25 08:52:26;;;;;;;43.35;28.73;;;;;;;;;;4943768;28;20120;-86
2022/03/25 08:55:19;;;;;;;41.63;28.02;;;;;;;;;;4991604;28;20041;-85
2022/03/25 08:57:57;;;;;;;48.17;30.10;;;;;;;;;;5003167;28;20041;-87
2022/03/25 09:00:27;;;;;;;47.03;30.35;;;;;;;;;;5033496;28;20248;-87
2022/03/25 09:03:01;;;;;;;45.17;30.17;;;;;;;;;;5032981;28;20049;-87
2022/03/25 09:06:25;;;;;;;38.67;27.52;;;;;;;;;;4998222;28;20303;-87
2022/03/25 09:08:55;;;;;;;43.38;28.45;;;;;;;;;;5032770;28;20048;-88
2022/03/25 09:11:45;;;;;;;41.17;27.33;;;;;;;;;;5030567;28;20053;-88
2022/03/25 09:14:19;;;;;;;40.28;27.83;;;;;;;;;;5029718;28;20136;-87
2022/03/25 09:17:28;;;;;;;41.22;26.98;;;;;;;;;;5020720;28;20076;-88
2022/03/25 09:19:54;;;;;;;35.63;25.52;;;;;;;;;;5031050;28;20045;-90
2022/03/25 09:22:22;;;;;;;40.53;28.08;;;;;;;;;;5013886;28;20049;-88
2022/03/25 09:24:50;;;;;;;39.03;25.77;;;;;;;;;;5015667;28;20085;-90
2022/03/25 09:27:18;;;;;;;35.35;24.85;;;;;;;;;;4998646;28;20096;-88
2022/03/25 09:29:49;;;;;;;37.38;24.65;;;;;;;;;;5014283;28;20420;-87
2022/03/25 09:32:21;;;;;;;33.75;25.55;;;;;;;;;;5014579;28;20053;-89
2022/03/25 09:35:09;;;;;;;38.40;26.17;;;;;;;;;;5014062;28;20493;-89
2022/03/25 09:37:44;;;;;;;34.40;24.42;;;;;;;;;;5014763;28;20056;-89
2022/03/25 09:43:34;;;;;;;32.55;23.92;;;;;;;;;;5030726;28;20072;-90
2022/03/25 09:46:22;;;;;;;38.30;25.90;;;;;;;;;;5029254;28;20053;-90
2022/03/25 09:48:50;;;;;;;33.75;23.98;;;;;;;;;;5011782;28;20052;-88
2022/03/25 09:51:50;;;;;;;36.05;24.70;;;;;;;;;;5030530;28;20053;-90
2022/03/25 09:54:59;;;;;;;34.00;24.80;;;;;;;;;;4977019;28;20089;-89
2022/03/25 09:57:31;;;;;;;;;;;;;;;;;;5003407;28;20159;-89
2022/03/25 10:00:41;;;;;;;32.85;22.58;;;;;;;;;;5029068;28;19924;-88
2022/03/25 10:06:57;;;;;;;30.80;22.42;;;;;;;;;;5048896;28;20032;-90
2022/03/25 10:10:18;;;;;;;36.85;24.63;;;;;;;;;;4994575;28;20095;-90
2022/03/25 10:16:52;;;;;;;27.35;18.88;;;;;;;;;;4943659;28;20171;-89
2022/03/25 10:26:49;;;;;;;29.15;18.85;;;;;;;;;;4953813;29;20039;-89
2022/03/25 10:29:56;;;;;;;28.25;17.75;;;;;;;;;;4953044;29;20051;-91
2022/03/25 10:33:28;;;;;;;31.73;21.60;;;;;;;;;;4932871;29;20114;-91
2022/03/25 10:36:57;;;;;;;27.63;18.33;;;;;;;;;;4915513;29;20130;-90
2022/03/25 10:40:01;;;;;;;26.48;17.25;;;;;;;;;;4926962;28;20046;-91
2022/03/25 10:43:01;;;;;;;27.33;18.08;;;;;;;;;;4942035;28;20534;-91
2022/03/25 10:49:06;;;;;;;26.70;17.92;;;;;;;;;;4975963;28;20125;-90
2022/03/25 10:51:33;;;;;;;30.25;20.40;;;;;;;;;;4992265;28;20074;-91
2022/03/25 10:54:01;;;;;;;26.48;17.80;;;;;;;;;;4959330;28;20470;-89
2022/03/25 10:56:28;;;;;;;24.13;17.25;;;;;;;;;;4958611;28;20082;-89
2022/03/25 10:58:56;;;;;;;23.67;16.17;;;;;;;;;;4990432;28;20113;-90
2022/03/25 11:01:22;;;;;;;23.90;15.73;;;;;;;;;;4959176;28;20049;-89
2022/03/25 11:03:50;;;;;;;23.30;14.02;;;;;;;;;;4986811;28;20088;-90
2022/03/25 11:06:18;;;;;;;22.80;14.80;;;;;;;;;;5013363;28;20103;-89
2022/03/25 11:08:45;;;;;;;22.45;15.50;;;;;;;;;;5014505;28;20052;-90
2022/03/25 11:11:12;;;;;;;27.20;17.00;;;;;;;;;;5016248;28;20489;-89
2022/03/25 11:13:38;;;;;;;23.58;15.60;;;;;;;;;;5017231;28;20045;-91
2022/03/25 11:16:08;;;;;;;21.45;15.52;;;;;;;;;;5019962;28;20045;-91
2022/03/25 11:18:35;;;;;;;22.45;15.48;;;;;;;;;;5033136;28;20121;-89
2022/03/25 11:21:04;;;;;;;20.98;15.23;;;;;;;;;;5018618;28;20042;-90
2022/03/25 11:23:51;;;;;;;23.48;14.98;;;;;;;;;;5017842;28;20037;-88
2022/03/25 11:26:20;;;;;;;23.02;15.07;;;;;;;;;;5020936;28;20046;-91
2022/03/25 11:28:51;;;;;;;22.88;15.07;;;;;;;;;;5021234;28;20180;-91
2022/03/25 11:31:17;;;;;;;24.33;15.85;;;;;;;;;;5019266;28;20137;-92
2022/03/25 11:34:02;;;;;;;26.88;19.17;;;;;;;;;;5019796;28;20073;-92
2022/03/25 11:36:28;;;;;;;;;;;;;;;;;;5020820;28;20594;-91
2022/03/25 11:39:22;;;;;;;30.85;21.45;;;;;;;;;;5018298;28;19932;-91
2022/03/25 11:41:49;;;;;;;28.75;21.58;;;;;;;;;;5020588;28;20059;-93
2022/03/25 11:44:15;;;;;;;27.40;19.15;;;;;;;;;;5017288;28;20045;-90
2022/03/25 11:47:00;;;;;;;23.85;18.08;;;;;;;;;;5017680;28;20128;-89
2022/03/25 11:49:30;;;;;;;25.15;17.63;;;;;;;;;;5017138;28;20095;-90
2022/03/25 11:51:56;;;;;;;26.98;19.00;;;;;;;;;;5032719;28;20568;-87
2022/03/25 11:54:36;;;;;;;28.60;20.42;;;;;;;;;;5019581;28;20090;-91
2022/03/25 11:57:04;;;;;;;28.55;19.98;;;;;;;;;;5017285;28;20041;-93
2022/03/25 11:59:46;;;;;;;28.10;20.83;;;;;;;;;;5028615;28;20037;-88
2022/03/25 12:02:31;;;;;;;29.05;20.77;;;;;;;;;;4998419;28;20080;-89
2022/03/25 12:04:58;;;;;;;26.50;19.42;;;;;;;;;;5000990;28;20045;-91
2022/03/25 12:07:25;;;;;;;26.40;19.58;;;;;;;;;;5000475;28;20489;-93
2022/03/25 12:09:51;;;;;;;30.83;19.83;;;;;;;;;;5000699;28;20448;-91
2022/03/25 12:12:18;;;;;;;29.58;19.90;;;;;;;;;;5018426;28;20042;-91
2022/03/25 12:15:03;;;;;;;25.70;19.45;;;;;;;;;;4999043;28;20053;-91
2022/03/25 12:17:29;;;;;;;27.42;19.30;;;;;;;;;;5015924;28;20041;-90
2022/03/25 12:19:56;;;;;;;32.60;20.30;;;;;;;;;;5033842;28;20496;-90
2022/03/25 12:22:23;;;;;;;29.85;19.92;;;;;;;;;;5022193;28;20097;-88
2022/03/25 12:24:50;;;;;;;28.33;19.17;;;;;;;;;;5035937;28;20075;-93
2022/03/25 12:27:17;;;;;;;26.63;19.13;;;;;;;;;;5033925;28;20409;-91
2022/03/25 12:29:44;;;;;;;25.92;19.92;;;;;;;;;;5017176;28;20045;-89
2022/03/25 12:32:13;;;;;;;29.63;19.88;;;;;;;;;;5018062;28;20052;-87
2022/03/25 12:34:58;;;;;;;29.10;18.58;;;;;;;;;;5017063;28;20034;-89
2022/03/25 12:37:39;;;;;;;29.15;19.60;;;;;;;;;;5015468;28;20038;-92
2022/03/25 12:40:19;;;;;;;29.95;20.27;;;;;;;;;;5019285;28;20494;-90
2022/03/25 12:42:50;;;;;;;28.10;20.45;;;;;;;;;;5019584;28;20049;-90
2022/03/25 12:45:17;;;;;;;29.00;19.50;;;;;;;;;;5018076;28;20421;-93
2022/03/25 12:47:44;;;;;;;26.60;20.00;;;;;;;;;;5023070;28;20052;-91
2022/03/25 12:50:17;;;;;;;25.00;19.25;;;;;;;;;;5037873;28;20468;-92
2022/03/25 12:52:44;;;;;;;25.00;20.15;;;;;;;;;;5018961;28;20042;-91
2022/03/25 12:55:16;;;;;;;27.52;19.63;;;;;;;;;;5038656;28;20088;-91
2022/03/25 12:57:45;;;;;;;28.08;18.35;;;;;;;;;;5018800;28;20044;-90
2022/03/25 13:00:13;;;;;;;25.52;17.33;;;;;;;;;;5020692;28;20432;-91
2022/03/25 13:02:41;;;;;;;23.70;18.13;;;;;;;;;;5039127;28;20085;-91
2022/03/25 13:05:13;;;;;;;27.00;18.05;;;;;;;;;;5037591;28;20120;-91
2022/03/25 13:07:45;;;;;;;26.08;18.42;;;;;;;;;;5040598;28;20053;-93
2022/03/25 13:10:11;;;;;;;27.05;18.52;;;;;;;;;;5038611;28;20045;-92
2022/03/25 13:12:42;;;;;;;25.83;17.80;;;;;;;;;;5034159;28;20101;-90
2022/03/25 13:15:10;;;;;;;29.55;18.15;;;;;;;;;;5040232;28;20045;-92
2022/03/25 13:17:37;;;;;;;26.67;17.08;;;;;;;;;;5021594;28;20034;-92
2022/03/25 13:20:08;;;;;;;24.25;17.45;;;;;;;;;;5020243;28;20405;-93
2022/03/25 13:22:35;;;;;;;25.00;17.52;;;;;;;;;;5035119;28;20048;-89
2022/03/25 13:25:01;;;;;;;27.70;18.30;;;;;;;;;;5013890;28;20077;-88
2022/03/25 13:27:27;;;;;;;26.40;18.63;;;;;;;;;;5012538;28;20387;-89
2022/03/25 13:29:54;;;;;;;24.10;17.80;;;;;;;;;;5011408;28;20127;-86
2022/03/25 13:32:30;;;;;;;24.75;17.38;;;;;;;;;;5035548;28;20401;-89
2022/03/25 13:35:04;;;;;;;23.52;16.23;;;;;;;;;;5013130;28;20129;-86
2022/03/25 13:37:30;;;;;;;24.35;17.10;;;;;;;;;;5021476;28;20049;-87
2022/03/25 13:39:57;;;;;;;23.50;18.00;;;;;;;;;;5028980;28;20145;-88
2022/03/25 13:42:31;;;;;;;26.30;18.30;;;;;;;;;;5015129;28;20448;-87
2022/03/25 13:45:05;;;;;;;26.38;17.48;;;;;;;;;;5029103;28;20107;-86
2022/03/25 13:47:31;;;;;;;24.65;17.52;;;;;;;;;;5035767;28;20429;-89
2022/03/25 13:50:14;;;;;;;25.77;17.13;;;;;;;;;;5031464;28;20120;-87
2022/03/25 13:52:41;;;;;;;25.77;18.30;;;;;;;;;;5056156;28;20037;-88
2022/03/25 13:55:14;;;;;;;23.70;18.05;;;;;;;;;;5031057;28;20064;-86
2022/03/25 13:57:40;;;;;;;26.47;19.87;;;;;;;;;;5030024;28;20044;-88
2022/03/25 14:00:09;;;;;;;25.38;19.67;;;;;;;;;;5032473;28;20041;-86
2022/03/25 14:02:49;;;;;;;26.58;19.13;;;;;;;;;;5032994;28;20389;-87
2022/03/25 14:05:41;;;;;;;32.00;20.60;;;;;;;;;;5018131;28;20133;-87
2022/03/25 14:08:10;;;;;;;29.15;19.98;;;;;;;;;;5014477;28;20151;-88
2022/03/25 14:10:37;;;;;;;29.25;19.50;;;;;;;;;;5009503;28;20045;-88
2022/03/25 14:13:08;;;;;;;28.80;21.52;;;;;;;;;;4996637;28;20080;-85
2022/03/25 14:15:35;;;;;;;27.88;19.73;;;;;;;;;;5014197;28;20509;-89
2022/03/25 14:18:02;;;;;;;27.13;20.70;;;;;;;;;;5015000;28;20049;-91
2022/03/25 14:20:29;;;;;;;28.48;19.83;;;;;;;;;;5014210;28;20045;-87
2022/03/25 14:22:58;;;;;;;27.95;19.65;;;;;;;;;;5005397;28;20047;-87
2022/03/25 14:25:30;;;;;;;28.70;19.10;;;;;;;;;;5015893;28;20045;-85
2022/03/25 14:27:59;;;;;;;24.95;17.65;;;;;;;;;;5015539;28;20122;-86
2022/03/25 14:30:29;;;;;;;27.15;18.02;;;;;;;;;;5033553;28;20041;-87
2022/03/25 14:32:55;;;;;;;22.95;16.55;;;;;;;;;;5015864;28;20037;-89
2022/03/25 14:35:22;;;;;;;26.00;17.77;;;;;;;;;;5016926;28;20033;-89
2022/03/25 14:37:50;;;;;;;24.50;17.30;;;;;;;;;;5016106;28;20501;-90
2022/03/25 14:40:17;;;;;;;21.40;16.65;;;;;;;;;;5032967;28;20466;-89
2022/03/25 14:42:44;;;;;;;25.67;17.80;;;;;;;;;;5034226;28;20045;-90
2022/03/25 14:47:59;;;;;;;21.73;15.20;;;;;;;;;;5012584;28;20391;-90
2022/03/25 14:50:28;;;;;;;21.02;14.65;;;;;;;;;;5010932;28;20045;-90
2022/03/25 14:52:54;;;;;;;20.40;13.88;;;;;;;;;;5012337;28;20041;-89
2022/03/25 14:55:34;;;;;;;21.25;13.65;;;;;;;;;;5034918;28;20033;-92
2022/03/25 14:58:03;;;;;;;22.40;13.63;;;;;;;;;;5018449;28;20507;-89
2022/03/25 15:00:30;;;;;;;20.38;13.63;;;;;;;;;;5017635;28;20156;-89
2022/03/25 15:02:57;;;;;;;20.05;12.15;;;;;;;;;;5014612;28;20044;-93
2022/03/25 15:05:32;;;;;;;19.77;13.25;;;;;;;;;;5032584;28;20071;-90
2022/03/25 15:07:58;;;;;;;20.20;12.95;;;;;;;;;;5015186;28;20033;-87
2022/03/25 15:10:25;;;;;;;22.10;12.68;;;;;;;;;;5030006;28;20057;-89